Time;durP1;ratioP1;P1;durP2;ratioP2;P2;SDS_P1;SDS_P2;PMS_P1;PMS_P2;Temp;Humidity;BMP_temperature;BMP_pressure;BME280_temperature;BME280_humidity;BME280_pressure;Samples;Min_cycle;Max_cycle;Signal;HPM_P1;HPM_P2
2022/08/12 00:45:07;;;;;;;;;;;;;;;;;;5046982;28;20008;-60
2022/08/12 00:47:33;;;;;;;;;;;;;;;;;;5046206;28;19925;-60
2022/08/12 00:49:59;;;;;;;;;;;;;;;;;;5046484;28;20655;-60
2022/08/12 00:52:25;;;;;;;;;;;;;;;;;;5046666;28;19967;-60
2022/08/12 00:54:51;;;;;;;;;;;;;;;;;;5045889;28;19979;-60
2022/08/12 00:57:17;;;;;;;;;;;;;;;;;;5046289;28;19925;-60
2022/08/12 00:59:43;;;;;;;;;;;;;;;;;;5046616;28;19948;-61
2022/08/12 01:02:09;;;;;;;;;;;;;;;;;;5046126;28;19975;-62
2022/08/12 01:12:49;;;;;;;;;;;;;;;;;;5048533;28;21055;-60
2022/08/12 01:15:15;;;;;;;;;;;;;;;;;;5065980;28;19925;-60
2022/08/12 01:17:41;;;;;;;;;;;;;;;;;;5066299;28;19972;-60
2022/08/12 01:20:07;;;;;;;;;;;;;;;;;;5066389;28;19968;-60
2022/08/12 01:22:33;;;;;;;;;;;;;;;;;;5065474;28;19955;-60
2022/08/12 01:24:59;;;;;;;;;;;;;;;;;;5064939;28;19928;-60
2022/08/12 01:27:25;;;;;;;;;;;;;;;;;;5066050;28;19931;-60
2022/08/12 01:29:51;;;;;;;;;;;;;;;;;;5065764;28;20523;-60
2022/08/12 01:32:17;;;;;;;;;;;;;;;;;;5065496;28;19924;-60
2022/08/12 01:34:43;;;;;;;;;;;;;;;;;;5066151;28;19950;-60
2022/08/12 01:37:09;;;;;;;;;;;;;;;;;;5065275;28;19991;-62
2022/08/12 01:39:35;;;;;;;;;;;;;;;;;;5064880;28;20350;-60
2022/08/12 01:42:01;;;;;;;;;;;;;;;;;;5065847;28;20017;-60
2022/08/12 01:44:27;;;;;;;;;;;;;;;;;;5065555;28;20034;-60
2022/08/12 01:46:53;;;;;;;;;;;;;;;;;;5065411;28;20373;-60
2022/08/12 01:49:19;;;;;;;;;;;;;;;;;;5065276;28;19966;-60
2022/08/12 01:51:45;;;;;;;;;;;;;;;;;;5065485;28;19925;-60
2022/08/12 01:54:12;;;;;;;;;;;;;;;;;;5064177;28;20567;-60
2022/08/12 01:56:40;;;;;;;;;;;;;;;;;;5048023;28;19977;-60
2022/08/12 02:01:51;;;;;;;;;;;;;;;;;;5065156;28;19971;-60
2022/08/12 02:12:31;;;;;;;;;;;;;;;;;;5044861;28;20142;-60
2022/08/12 02:14:59;;;;;;;;;;;;;;;;;;5045044;28;20374;-60
2022/08/12 02:17:25;;;;;;;;;;;;;;;;;;5044515;28;19968;-59
2022/08/12 02:19:53;;;;;;;;;;;;;;;;;;5045184;28;19975;-60
2022/08/12 02:22:19;;;;;;;;;;;;;;;;;;5044407;28;19924;-59
2022/08/12 02:24:45;;;;;;;;;;;;;;;;;;5044173;28;20020;-59
2022/08/12 02:27:11;;;;;;;;;;;;;;;;;;5044204;28;19960;-59
2022/08/12 02:29:37;;;;;;;;;;;;;;;;;;5044212;28;20401;-59
2022/08/12 02:32:03;;;;;;;;;;;;;;;;;;5044085;28;19925;-59
2022/08/12 02:34:30;;;;;;;;;;;;;;;;;;5044501;28;19933;-59
2022/08/12 02:36:56;;;;;;;;;;;;;;;;;;5044012;28;19964;-60
2022/08/12 02:39:22;;;;;;;;;;;;;;;;;;5043953;28;19979;-59
2022/08/12 02:41:48;;;;;;;;;;;;;;;;;;5044481;28;19960;-60
2022/08/12 02:44:14;;;;;;;;;;;;;;;;;;5044439;28;20338;-59
2022/08/12 02:46:40;;;;;;;;;;;;;;;;;;5044973;28;20374;-60
2022/08/12 02:49:06;;;;;;;;;;;;;;;;;;5044828;28;20004;-59
2022/08/12 02:51:32;;;;;;;;;;;;;;;;;;5043983;28;19991;-59
2022/08/12 02:53:58;;;;;;;;;;;;;;;;;;5044130;28;19925;-59
2022/08/12 02:56:26;;;;;;;;;;;;;;;;;;5044508;28;19976;-60
2022/08/12 02:58:53;;;;;;;;;;;;;;;;;;5044969;28;19935;-59
2022/08/12 03:01:19;;;;;;;;;;;;;;;;;;5044078;28;20019;-60
2022/08/12 03:03:45;;;;;;;;;;;;;;;;;;5044400;28;20058;-59
2022/08/12 03:06:10;;;;;;;;;;;;;;;;;;5044351;28;19929;-60
2022/08/12 03:08:41;;;;;;;;;;;;;;;;;;5044307;28;20392;-60
2022/08/12 03:11:08;;;;;;;;;;;;;;;;;;5044652;28;20337;-59
2022/08/12 03:13:37;;;;;;;;;;;;;;;;;;5044970;28;19957;-60
2022/08/12 03:16:03;;;;;;;;;;;;;;;;;;5026901;28;19931;-59
2022/08/12 03:18:30;;;;;;;;;;;;;;;;;;5044146;28;20027;-59
2022/08/12 03:20:56;;;;;;;;;;;;;;;;;;5044436;28;19924;-60
2022/08/12 03:23:22;;;;;;;;;;;;;;;;;;5043370;28;20369;-59
2022/08/12 03:25:48;;;;;;;;;;;;;;;;;;5044137;28;20385;-59
2022/08/12 03:28:49;;;;;;;;;;;;;;;;;;5045362;28;19925;-60
2022/08/12 03:31:00;;;;;;;;;;;;;;;;;;5030112;28;20365;-59
2022/08/12 03:33:26;;;;;;;;;;;;;;;;;;5048186;28;19964;-60
2022/08/12 03:35:52;;;;;;;;;;;;;;;;;;5048089;28;20561;-59
2022/08/12 03:38:18;;;;;;;;;;;;;;;;;;5046570;28;19924;-59
2022/08/12 04:02:41;;;;;;;;;;;;;;;;;;5047727;28;19924;-60
2022/08/12 04:05:07;;;;;;;;;;;;;;;;;;5047845;28;20673;-59
2022/08/12 04:07:33;;;;;;;;;;;;;;;;;;5047123;28;19925;-59
2022/08/12 04:09:59;;;;;;;;;;;;;;;;;;5046677;28;19955;-59
2022/08/12 04:15:11;;;;;;;;;;;;;;;;;;5047244;28;19979;-60
2022/08/12 04:17:38;;;;;;;;;;;;;;;;;;5047502;28;19925;-60
2022/08/12 04:20:10;;;;;;;;;;;;;;;;;;5047446;28;19925;-59
2022/08/12 04:22:36;;;;;;;;;;;;;;;;;;5046652;28;19925;-60
2022/08/12 04:25:02;;;;;;;;;;;;;;;;;;5047200;28;20023;-59
2022/08/12 04:27:30;;;;;;;;;;;;;;;;;;5047134;28;19916;-59
2022/08/12 04:29:57;;;;;;;;;;;;;;;;;;5047003;28;19924;-59
2022/08/12 04:32:23;;;;;;;;;;;;;;;;;;5028977;28;20012;-59
2022/08/12 04:34:49;;;;;;;;;;;;;;;;;;5046533;28;20012;-59
2022/08/12 04:37:15;;;;;;;;;;;;;;;;;;5046932;28;19925;-60
2022/08/12 04:39:41;;;;;;;;;;;;;;;;;;5045897;28;19971;-60
2022/08/12 04:42:07;;;;;;;;;;;;;;;;;;5047114;28;19933;-59
2022/08/12 04:44:33;;;;;;;;;;;;;;;;;;5046582;28;19951;-59
2022/08/12 04:46:59;;;;;;;;;;;;;;;;;;5046875;28;20157;-59
2022/08/12 04:49:25;;;;;;;;;;;;;;;;;;5046079;28;20015;-59
2022/08/12 04:51:51;;;;;;;;;;;;;;;;;;5046795;28;20468;-59
2022/08/12 04:54:17;;;;;;;;;;;;;;;;;;5045949;28;19971;-60
2022/08/12 04:56:43;;;;;;;;;;;;;;;;;;5046682;28;20015;-60
2022/08/12 04:59:10;;;;;;;;;;;;;;;;;;5046259;28;20386;-61
2022/08/12 05:01:37;;;;;;;;;;;;;;;;;;5046724;28;19947;-59
2022/08/12 05:04:03;;;;;;;;;;;;;;;;;;5046148;28;19972;-59
2022/08/12 05:06:29;;;;;;;;;;;;;;;;;;5046411;28;19967;-59
2022/08/12 05:08:55;;;;;;;;;;;;;;;;;;5045784;28;19971;-59
2022/08/12 05:11:21;;;;;;;;;;;;;;;;;;5046092;28;19975;-59
2022/08/12 05:13:47;;;;;;;;;;;;;;;;;;5046290;28;19925;-59
2022/08/12 05:16:13;;;;;;;;;;;;;;;;;;5027930;28;20015;-59
2022/08/12 05:18:39;;;;;;;;;;;;;;;;;;5046008;28;20012;-60
2022/08/12 05:21:06;;;;;;;;;;;;;;;;;;5046582;28;20378;-59
2022/08/12 05:23:32;;;;;;;;;;;;;;;;;;5045454;28;19955;-59
2022/08/12 05:25:59;;;;;;;;;;;;;;;;;;5028092;28;19940;-59
2022/08/12 05:28:25;;;;;;;;;;;;;;;;;;5045698;28;19925;-59
2022/08/12 05:30:51;;;;;;;;;;;;;;;;;;5045899;28;20291;-59
2022/08/12 05:33:17;;;;;;;;;;;;;;;;;;5045425;28;20371;-59
2022/08/12 05:35:43;;;;;;;;;;;;;;;;;;5045531;28;20289;-59
2022/08/12 05:40:54;;;;;;;;;;;;;;;;;;5063852;28;20393;-59
2022/08/12 05:43:20;;;;;;;;;;;;;;;;;;5065158;28;19984;-59
2022/08/12 05:45:46;;;;;;;;;;;;;;;;;;5065367;28;19936;-60
2022/08/12 05:48:12;;;;;;;;;;;;;;;;;;5064795;28;19924;-59
2022/08/12 05:50:38;;;;;;;;;;;;;;;;;;5060806;28;20400;-59
2022/08/12 05:53:05;;;;;;;;;;;;;;;;;;5054770;28;20011;-59
2022/08/12 05:55:31;;;;;;;;;;;;;;;;;;5053734;28;19933;-59
2022/08/12 05:57:57;;;;;;;;;;;;;;;;;;5055253;28;20300;-59
2022/08/12 06:00:24;;;;;;;;;;;;;;;;;;5036438;28;19925;-59
2022/08/12 06:02:52;;;;;;;;;;;;;;;;;;5054218;28;19948;-60
2022/08/12 06:05:19;;;;;;;;;;;;;;;;;;5055293;28;19931;-60
2022/08/12 06:07:46;;;;;;;;;;;;;;;;;;5054390;28;20011;-59
2022/08/12 06:10:12;;;;;;;;;;;;;;;;;;5053135;28;19929;-60
2022/08/12 06:12:38;;;;;;;;;;;;;;;;;;5055148;28;20345;-59
2022/08/12 06:15:04;;;;;;;;;;;;;;;;;;5055270;28;19937;-59
2022/08/12 06:17:30;;;;;;;;;;;;;;;;;;5053563;28;19924;-60
2022/08/12 06:19:57;;;;;;;;;;;;;;;;;;5055873;28;19971;-59
2022/08/12 06:22:23;;;;;;;;;;;;;;;;;;5035743;28;19953;-60
2022/08/12 06:24:51;;;;;;;;;;;;;;;;;;5053477;28;19924;-60
2022/08/12 06:27:17;;;;;;;;;;;;;;;;;;5052891;28;19928;-60
2022/08/12 06:29:43;;;;;;;;;;;;;;;;;;5036405;28;20435;-60
2022/08/12 06:32:09;;;;;;;;;;;;;;;;;;5055082;28;20355;-60
2022/08/12 06:34:35;;;;;;;;;;;;;;;;;;5053701;28;19925;-59
2022/08/12 06:37:01;;;;;;;;;;;;;;;;;;5054205;28;19927;-59
2022/08/12 06:39:27;;;;;;;;;;;;;;;;;;5046014;28;19925;-59
2022/08/12 06:44:38;;;;;;;;;;;;;;;;;;5044974;28;20566;-59
2022/08/12 06:47:04;;;;;;;;;;;;;;;;;;5047247;28;19925;-60
2022/08/12 06:49:35;;;;;;;;;;;;;;;;;;5058242;28;19970;-59
2022/08/12 06:52:03;;;;;;;;;;;;;;;;;;5064017;28;19967;-59
2022/08/12 06:54:29;;;;;;;;;;;;;;;;;;5063832;28;19929;-58
2022/08/12 06:56:55;;;;;;;;;;;;;;;;;;5064939;28;19968;-62
2022/08/12 06:59:21;;;;;;;;;;;;;;;;;;5064299;28;19968;-60
2022/08/12 07:01:47;;;;;;;;;;;;;;;;;;5064673;28;19924;-60
2022/08/12 07:04:14;;;;;;;;;;;;;;;;;;5068349;28;19931;-61
2022/08/12 07:06:40;;;;;;;;;;;;;;;;;;5061627;28;19925;-61
2022/08/12 07:09:06;;;;;;;;;;;;;;;;;;5040249;28;20463;-61
2022/08/12 07:11:32;;;;;;;;;;;;;;;;;;5055988;28;19924;-61
2022/08/12 07:14:00;;;;;;;;;;;;;;;;;;5048566;28;19928;-61
2022/08/12 07:16:50;;;;;;;;;;;;;;;;;;5048061;28;19924;-61
2022/08/12 07:19:12;;;;;;;;;;;;;;;;;;5047402;28;19924;-61
2022/08/12 07:21:38;;;;;;;;;;;;;;;;;;5058447;28;20074;-61
2022/08/12 07:24:04;;;;;;;;;;;;;;;;;;5056027;28;20414;-61
2022/08/12 07:26:30;;;;;;;;;;;;;;;;;;5058207;28;19977;-61
2022/08/12 07:28:57;;;;;;;;;;;;;;;;;;5057082;28;20075;-61
2022/08/12 07:31:23;;;;;;;;;;;;;;;;;;5040686;28;19931;-61
2022/08/12 07:33:51;;;;;;;;;;;;;;;;;;5055703;28;19924;-61
2022/08/12 07:36:17;;;;;;;;;;;;;;;;;;5052681;28;20243;-61
2022/08/12 07:38:45;;;;;;;;;;;;;;;;;;5047535;28;19925;-62
2022/08/12 07:41:11;;;;;;;;;;;;;;;;;;5047584;28;20019;-62
2022/08/12 07:43:37;;;;;;;;;;;;;;;;;;5051454;28;20396;-62
2022/08/12 07:46:03;;;;;;;;;;;;;;;;;;5058407;28;19924;-62
2022/08/12 07:48:29;;;;;;;;;;;;;;;;;;5067697;28;19928;-60
2022/08/12 07:50:55;;;;;;;;;;;;;;;;;;5067562;28;20397;-60
2022/08/12 07:53:22;;;;;;;;;;;;;;;;;;5067045;28;20374;-59
2022/08/12 07:55:48;;;;;;;;;;;;;;;;;;5067666;28;19932;-60
2022/08/12 07:58:14;;;;;;;;;;;;;;;;;;5067041;28;19928;-60
2022/08/12 08:00:40;;;;;;;;;;;;;;;;;;5066738;28;19997;-61
2022/08/12 08:03:07;;;;;;;;;;;;;;;;;;5067721;28;20026;-60
2022/08/12 08:05:36;;;;;;;;;;;;;;;;;;5067304;28;19925;-60
2022/08/12 08:08:03;;;;;;;;;;;;;;;;;;5066282;28;19931;-60
2022/08/12 08:10:29;;;;;;;;;;;;;;;;;;5049334;28;19929;-60
2022/08/12 08:12:57;;;;;;;;;;;;;;;;;;5046678;28;19948;-60
2022/08/12 08:15:23;;;;;;;;;;;;;;;;;;5045868;28;19917;-60
2022/08/12 08:17:49;;;;;;;;;;;;;;;;;;5052350;28;20381;-61
2022/08/12 08:20:23;;;;;;;;;;;;;;;;;;5057573;28;19925;-60
2022/08/12 08:22:51;;;;;;;;;;;;;;;;;;5058939;28;19954;-61
2022/08/12 08:25:19;;;;;;;;;;;;;;;;;;5066071;28;19924;-61
2022/08/12 08:27:45;;;;;;;;;;;;;;;;;;5066650;28;19947;-61
2022/08/12 08:30:12;;;;;;;;;;;;;;;;;;5066807;28;19932;-62
2022/08/12 08:32:38;;;;;;;;;;;;;;;;;;5064624;28;20310;-61
2022/08/12 08:35:04;;;;;;;;;;;;;;;;;;5047225;28;19925;-61
2022/08/12 08:37:31;;;;;;;;;;;;;;;;;;5045719;28;20019;-61
2022/08/12 08:42:35;;;;;;;;;;;;;;;;;;5046101;28;20066;-62
2022/08/12 08:45:47;;;;;;;;;;;;;;;;;;5031023;28;20385;-62
2022/08/12 08:48:13;;;;;;;;;;;;;;;;;;5056889;28;19978;-62
2022/08/12 08:50:39;;;;;;;;;;;;;;;;;;5051859;28;20008;-63
2022/08/12 08:53:07;;;;;;;;;;;;;;;;;;5035399;28;19924;-64
2022/08/12 08:55:34;;;;;;;;;;;;;;;;;;5055027;28;19932;-64
2022/08/12 08:58:00;;;;;;;;;;;;;;;;;;5055834;28;19932;-63
2022/08/12 09:00:26;;;;;;;;;;;;;;;;;;5055432;28;20374;-64
2022/08/12 09:02:52;;;;;;;;;;;;;;;;;;5057533;28;20373;-60
2022/08/12 09:05:18;;;;;;;;;;;;;;;;;;5057258;28;19982;-63
2022/08/12 09:07:44;;;;;;;;;;;;;;;;;;5051115;28;19924;-64
2022/08/12 09:10:10;;;;;;;;;;;;;;;;;;5051756;28;19978;-63
2022/08/12 09:15:22;;;;;;;;;;;;;;;;;;5059436;28;20248;-63
2022/08/12 09:17:50;;;;;;;;;;;;;;;;;;5046336;28;20418;-63
2022/08/12 09:20:16;;;;;;;;;;;;;;;;;;5045312;28;20329;-63
2022/08/12 09:22:43;;;;;;;;;;;;;;;;;;5027727;28;19928;-62
2022/08/12 09:25:09;;;;;;;;;;;;;;;;;;5049377;28;19928;-65
2022/08/12 09:27:35;;;;;;;;;;;;;;;;;;5052801;28;20117;-63
2022/08/12 09:30:02;;;;;;;;;;;;;;;;;;5054054;28;20389;-63
2022/08/12 09:32:28;;;;;;;;;;;;;;;;;;5048728;28;19921;-63
2022/08/12 09:34:54;;;;;;;;;;;;;;;;;;5045217;28;20622;-63
2022/08/12 09:37:25;;;;;;;;;;;;;;;;;;5044232;28;19932;-63
2022/08/12 09:39:53;;;;;;;;;;;;;;;;;;5045042;28;20366;-63
2022/08/12 09:45:21;;;;;;;;;;;;;;;;;;5045174;28;19978;-63
2022/08/12 09:47:47;;;;;;;;;;;;;;;;;;5051090;28;19964;-61
2022/08/12 09:50:15;;;;;;;;;;;;;;;;;;5046432;28;19960;-61
2022/08/12 09:52:41;;;;;;;;;;;;;;;;;;5044776;28;20019;-61
2022/08/12 09:55:10;;;;;;;;;;;;;;;;;;5045338;28;20019;-60
2022/08/12 09:57:36;;;;;;;;;;;;;;;;;;5045938;28;19928;-61
2022/08/12 10:00:02;;;;;;;;;;;;;;;;;;5044851;28;19939;-60
2022/08/12 10:02:28;;;;;;;;;;;;;;;;;;5044001;28;19925;-60
2022/08/12 10:04:56;;;;;;;;;;;;;;;;;;5053203;28;20350;-59
2022/08/12 10:07:22;;;;;;;;;;;;;;;;;;5061326;28;20363;-57
2022/08/12 10:09:49;;;;;;;;;;;;;;;;;;5064513;28;20429;-59
2022/08/12 10:15:00;;;;;;;;;;;;;;;;;;5064330;28;19932;-62
2022/08/12 10:17:26;;;;;;;;;;;;;;;;;;5053479;28;19925;-62
2022/08/12 10:19:52;;;;;;;;;;;;;;;;;;5048804;28;19932;-62
2022/08/12 10:22:19;;;;;;;;;;;;;;;;;;5043612;28;20386;-61
2022/08/12 10:29:35;;;;;;;;;;;;;;;;;;5044532;28;20410;-61
2022/08/12 10:30:18;;;;;;;;;;;;;;;;;;5044067;28;19925;-58
2022/08/12 10:32:49;;;;;;;;;;;;;;;;;;5044280;28;19935;-58
2022/08/12 10:35:15;;;;;;;;;;;;;;;;;;5044673;28;19925;-59
2022/08/12 10:37:44;;;;;;;;;;;;;;;;;;5043218;28;19925;-61
2022/08/12 10:40:10;;;;;;;;;;;;;;;;;;5044406;28;20424;-58
2022/08/12 10:45:21;;;;;;;;;;;;;;;;;;5044074;28;19925;-58
2022/08/12 10:47:48;;;;;;;;;;;;;;;;;;5044623;28;19917;-59
2022/08/12 10:50:14;;;;;;;;;;;;;;;;;;5044095;28;19977;-59
2022/08/12 10:52:40;;;;;;;;;;;;;;;;;;5044123;28;19933;-59
2022/08/12 10:55:06;;;;;;;;;;;;;;;;;;5044527;28;19916;-59
2022/08/12 10:57:32;;;;;;;;;;;;;;;;;;5046221;28;19952;-59
2022/08/12 10:59:58;;;;;;;;;;;;;;;;;;5054257;28;19956;-59
2022/08/12 11:02:26;;;;;;;;;;;;;;;;;;5055962;28;19970;-59
2022/08/12 11:04:58;;;;;;;;;;;;;;;;;;5064268;28;19928;-59
2022/08/12 11:07:24;;;;;;;;;;;;;;;;;;5063251;28;19931;-59
2022/08/12 11:09:51;;;;;;;;;;;;;;;;;;5063603;28;19931;-59
2022/08/12 11:12:17;;;;;;;;;;;;;;;;;;5045972;28;20015;-59
2022/08/12 11:14:43;;;;;;;;;;;;;;;;;;5064585;28;19932;-59
2022/08/12 11:17:10;;;;;;;;;;;;;;;;;;5064194;28;19928;-59
2022/08/12 11:19:38;;;;;;;;;;;;;;;;;;5064806;28;20025;-59
2022/08/12 11:22:04;;;;;;;;;;;;;;;;;;5060246;28;19925;-59
2022/08/12 11:24:30;;;;;;;;;;;;;;;;;;5063493;28;19924;-59
2022/08/12 11:26:56;;;;;;;;;;;;;;;;;;5064206;28;19924;-59
2022/08/12 11:29:22;;;;;;;;;;;;;;;;;;5059977;28;20460;-59
2022/08/12 11:31:48;;;;;;;;;;;;;;;;;;5044018;28;19925;-59
2022/08/12 11:34:15;;;;;;;;;;;;;;;;;;5044015;28;19967;-59
2022/08/12 11:36:41;;;;;;;;;;;;;;;;;;5045129;28;20544;-59
2022/08/12 11:39:07;;;;;;;;;;;;;;;;;;5047352;28;19924;-59
2022/08/12 11:41:37;;;;;;;;;;;;;;;;;;5046127;28;19947;-59
2022/08/12 11:44:03;;;;;;;;;;;;;;;;;;5048814;28;19928;-60
2022/08/12 11:46:29;;;;;;;;;;;;;;;;;;5055316;28;19939;-60
2022/08/12 11:48:55;;;;;;;;;;;;;;;;;;5059826;28;20016;-60
2022/08/12 11:51:21;;;;;;;;;;;;;;;;;;5046072;28;19952;-60
2022/08/12 11:53:47;;;;;;;;;;;;;;;;;;5049905;28;19946;-60
2022/08/12 11:56:13;;;;;;;;;;;;;;;;;;5056598;28;19978;-60
2022/08/12 11:58:40;;;;;;;;;;;;;;;;;;5057005;28;19928;-61
2022/08/12 12:01:06;;;;;;;;;;;;;;;;;;5056735;28;19935;-61
2022/08/12 12:03:32;;;;;;;;;;;;;;;;;;5054900;28;20039;-62
2022/08/12 12:05:58;;;;;;;;;;;;;;;;;;5050274;28;19933;-61
2022/08/12 12:08:24;;;;;;;;;;;;;;;;;;5053193;28;20082;-61
2022/08/12 12:10:50;;;;;;;;;;;;;;;;;;5053326;28;20532;-61
2022/08/12 12:13:16;;;;;;;;;;;;;;;;;;5052903;28;20409;-61
2022/08/12 12:15:42;;;;;;;;;;;;;;;;;;5048904;28;19991;-61
2022/08/12 12:18:08;;;;;;;;;;;;;;;;;;5055232;28;19924;-61
2022/08/12 12:20:34;;;;;;;;;;;;;;;;;;5052464;28;19940;-61
2022/08/12 12:23:00;;;;;;;;;;;;;;;;;;5052430;28;19933;-61
2022/08/12 12:25:26;;;;;;;;;;;;;;;;;;5054638;28;20301;-61
2022/08/12 12:27:52;;;;;;;;;;;;;;;;;;5043873;28;19955;-61
2022/08/12 12:30:18;;;;;;;;;;;;;;;;;;5043584;28;19924;-61
2022/08/12 12:32:44;;;;;;;;;;;;;;;;;;5047075;28;19972;-61
2022/08/12 12:35:10;;;;;;;;;;;;;;;;;;5054505;28;19929;-61
2022/08/12 12:37:36;;;;;;;;;;;;;;;;;;5052098;28;19964;-61
2022/08/12 12:40:02;;;;;;;;;;;;;;;;;;5053818;28;20356;-61
2022/08/12 12:42:28;;;;;;;;;;;;;;;;;;5054241;28;20681;-61
2022/08/12 12:44:55;;;;;;;;;;;;;;;;;;5047072;28;19925;-61
2022/08/12 12:47:21;;;;;;;;;;;;;;;;;;5043972;28;19964;-61
2022/08/12 12:49:47;;;;;;;;;;;;;;;;;;5043795;28;19974;-61
2022/08/12 12:52:13;;;;;;;;;;;;;;;;;;5042911;28;20302;-61
2022/08/12 12:54:51;;;;;;;;;;;;;;;;;;5043718;28;19928;-61
2022/08/12 12:57:17;;;;;;;;;;;;;;;;;;5043757;28;20558;-61
2022/08/12 13:00:13;;;;;;;;;;;;;;;;;;5049381;28;19942;-61
2022/08/12 13:02:29;;;;;;;;;;;;;;;;;;5063719;28;20575;-62
2022/08/12 13:04:55;;;;;;;;;;;;;;;;;;5063144;28;21136;-61
2022/08/12 13:07:21;;;;;;;;;;;;;;;;;;5062606;28;19928;-61
2022/08/12 13:09:49;;;;;;;;;;;;;;;;;;5062781;28;21267;-58
2022/08/12 13:12:15;;;;;;;;;;;;;;;;;;5063217;28;19967;-59
2022/08/12 13:14:41;;;;;;;;;;;;;;;;;;5063208;28;19990;-59
2022/08/12 13:17:08;;;;;;;;;;;;;;;;;;5063657;28;20378;-59
2022/08/12 13:19:35;;;;;;;;;;;;;;;;;;5063952;28;19971;-60
2022/08/12 13:22:16;;;;;;;;;;;;;;;;;;5062829;28;19924;-59
2022/08/12 13:24:42;;;;;;;;;;;;;;;;;;5063063;28;19925;-59
2022/08/12 13:27:08;;;;;;;;;;;;;;;;;;5063766;28;19932;-59
2022/08/12 13:29:37;;;;;;;;;;;;;;;;;;5063515;28;19928;-60
2022/08/12 13:32:04;;;;;;;;;;;;;;;;;;5062713;28;19928;-60
2022/08/12 13:34:31;;;;;;;;;;;;;;;;;;5063281;28;20493;-60
2022/08/12 13:36:57;;;;;;;;;;;;;;;;;;5043555;28;20297;-59
2022/08/12 13:39:24;;;;;;;;;;;;;;;;;;5062503;28;19996;-59
2022/08/12 13:41:50;;;;;;;;;;;;;;;;;;5062695;28;19924;-59
2022/08/12 13:44:16;;;;;;;;;;;;;;;;;;5062755;28;19925;-60
2022/08/12 13:46:42;;;;;;;;;;;;;;;;;;5062651;28;20275;-60
2022/08/12 13:49:12;;;;;;;;;;;;;;;;;;5063354;28;20503;-59
2022/08/12 13:51:38;;;;;;;;;;;;;;;;;;5059272;28;19935;-60
2022/08/12 13:54:04;;;;;;;;;;;;;;;;;;5046899;28;20292;-60
2022/08/12 13:56:33;;;;;;;;;;;;;;;;;;5048063;28;20404;-60
2022/08/12 13:59:00;;;;;;;;;;;;;;;;;;5051541;28;20280;-60
2022/08/12 14:01:27;;;;;;;;;;;;;;;;;;5051678;28;20001;-60
2022/08/12 14:03:53;;;;;;;;;;;;;;;;;;5058616;28;19935;-60
2022/08/12 14:06:19;;;;;;;;;;;;;;;;;;5060484;28;20215;-60
2022/08/12 14:08:47;;;;;;;;;;;;;;;;;;5051001;28;19928;-60
2022/08/12 14:11:13;;;;;;;;;;;;;;;;;;5050454;28;19929;-60
2022/08/12 14:13:40;;;;;;;;;;;;;;;;;;5051383;28;19924;-60
2022/08/12 14:16:09;;;;;;;;;;;;;;;;;;5053259;28;19928;-60
2022/08/12 14:18:37;;;;;;;;;;;;;;;;;;5051144;28;19928;-60
2022/08/12 14:21:03;;;;;;;;;;;;;;;;;;5043196;28;19928;-60
2022/08/12 14:23:31;;;;;;;;;;;;;;;;;;5055314;28;19935;-60
2022/08/12 14:25:58;;;;;;;;;;;;;;;;;;5056328;28;19928;-60
2022/08/12 14:28:24;;;;;;;;;;;;;;;;;;5061784;28;19924;-60
2022/08/12 14:30:52;;;;;;;;;;;;;;;;;;5061689;28;19936;-60
2022/08/12 14:33:18;;;;;;;;;;;;;;;;;;5061293;28;20354;-60
2022/08/12 14:35:44;;;;;;;;;;;;;;;;;;5062160;28;20699;-58
2022/08/12 14:38:11;;;;;;;;;;;;;;;;;;5060929;28;19928;-60
2022/08/12 14:40:37;;;;;;;;;;;;;;;;;;5061923;28;19920;-60
2022/08/12 14:43:03;;;;;;;;;;;;;;;;;;5058166;28;20475;-59
2022/08/12 14:45:30;;;;;;;;;;;;;;;;;;5061792;28;20019;-59
2022/08/12 14:47:57;;;;;;;;;;;;;;;;;;5061306;28;20396;-56
2022/08/12 14:50:23;;;;;;;;;;;;;;;;;;5061751;28;19950;-59
2022/08/12 14:52:50;;;;;;;;;;;;;;;;;;5061089;28;20658;-60
2022/08/12 14:55:16;;;;;;;;;;;;;;;;;;5061645;28;20401;-60
2022/08/12 14:57:42;;;;;;;;;;;;;;;;;;5061842;28;19929;-60
2022/08/12 15:02:52;;;;;;;;;;;;;;;;;;5061764;28;19928;-60
2022/08/12 15:05:18;;;;;;;;;;;;;;;;;;5061288;28;19990;-60
2022/08/12 15:07:44;;;;;;;;;;;;;;;;;;5061128;28;20298;-59
2022/08/12 15:10:12;;;;;;;;;;;;;;;;;;5061229;28;19928;-61
2022/08/12 15:12:38;;;;;;;;;;;;;;;;;;5061612;28;19935;-60
2022/08/12 15:15:05;;;;;;;;;;;;;;;;;;5056351;28;19925;-61
2022/08/12 15:17:31;;;;;;;;;;;;;;;;;;5049908;28;19925;-61
2022/08/12 15:19:57;;;;;;;;;;;;;;;;;;5064104;28;19978;-60
2022/08/12 15:22:23;;;;;;;;;;;;;;;;;;5062343;28;19980;-61
2022/08/12 15:24:49;;;;;;;;;;;;;;;;;;5052736;28;19976;-60
2022/08/12 15:27:15;;;;;;;;;;;;;;;;;;5047186;28;19924;-60
2022/08/12 15:29:41;;;;;;;;;;;;;;;;;;5047632;28;19926;-61
2022/08/12 15:32:09;;;;;;;;;;;;;;;;;;5048076;28;19925;-60
2022/08/12 15:34:37;;;;;;;;;;;;;;;;;;5047946;28;20286;-60
2022/08/12 15:37:03;;;;;;;;;;;;;;;;;;5046600;28;19925;-60
2022/08/12 15:39:29;;;;;;;;;;;;;;;;;;5047262;28;19928;-60
2022/08/12 15:41:55;;;;;;;;;;;;;;;;;;5047612;28;20419;-61
2022/08/12 15:44:22;;;;;;;;;;;;;;;;;;5029271;28;19932;-61
2022/08/12 15:46:48;;;;;;;;;;;;;;;;;;5047532;28;19925;-60
2022/08/12 15:49:14;;;;;;;;;;;;;;;;;;5047219;28;19925;-60
2022/08/12 15:51:40;;;;;;;;;;;;;;;;;;5046519;28;19970;-61
2022/08/12 15:54:06;;;;;;;;;;;;;;;;;;5047433;28;20016;-61
2022/08/12 15:56:32;;;;;;;;;;;;;;;;;;5047158;28;19925;-60
2022/08/12 15:58:58;;;;;;;;;;;;;;;;;;5047413;28;19932;-61
2022/08/12 16:01:27;;;;;;;;;;;;;;;;;;5047030;28;19925;-61
2022/08/12 16:03:55;;;;;;;;;;;;;;;;;;5047426;28;20600;-61
2022/08/12 16:06:21;;;;;;;;;;;;;;;;;;5046282;28;20059;-61
2022/08/12 16:08:47;;;;;;;;;;;;;;;;;;5046500;28;20027;-61
2022/08/12 16:11:13;;;;;;;;;;;;;;;;;;5046603;28;19925;-61
2022/08/12 16:13:39;;;;;;;;;;;;;;;;;;5047042;28;19929;-62
2022/08/12 16:16:06;;;;;;;;;;;;;;;;;;5047071;28;20397;-61
2022/08/12 16:18:35;;;;;;;;;;;;;;;;;;5046644;28;19968;-61
2022/08/12 16:21:01;;;;;;;;;;;;;;;;;;5045879;28;19924;-61
2022/08/12 16:23:27;;;;;;;;;;;;;;;;;;5028402;28;19935;-61
2022/08/12 16:25:53;;;;;;;;;;;;;;;;;;5046905;28;20453;-61
2022/08/12 16:28:21;;;;;;;;;;;;;;;;;;5046562;28;19998;-61
2022/08/12 16:30:47;;;;;;;;;;;;;;;;;;5046504;28;19991;-61
2022/08/12 16:33:15;;;;;;;;;;;;;;;;;;5046156;28;19921;-61
2022/08/12 16:35:41;;;;;;;;;;;;;;;;;;5044765;28;20366;-61
2022/08/12 16:38:07;;;;;;;;;;;;;;;;;;5046553;28;20791;-61
2022/08/12 16:40:33;;;;;;;;;;;;;;;;;;5046295;28;20004;-60
2022/08/12 16:43:01;;;;;;;;;;;;;;;;;;5046393;28;19929;-60
2022/08/12 16:45:28;;;;;;;;;;;;;;;;;;5045963;28;19924;-61
2022/08/12 16:47:54;;;;;;;;;;;;;;;;;;5046129;28;20003;-60
2022/08/12 16:50:23;;;;;;;;;;;;;;;;;;5045647;28;20456;-60
2022/08/12 16:52:49;;;;;;;;;;;;;;;;;;5045567;28;19925;-60
2022/08/12 16:55:15;;;;;;;;;;;;;;;;;;5046086;28;19925;-60
2022/08/12 16:57:42;;;;;;;;;;;;;;;;;;5045821;28;19925;-60
2022/08/12 17:00:10;;;;;;;;;;;;;;;;;;5046025;28;20294;-60
2022/08/12 17:02:38;;;;;;;;;;;;;;;;;;5045932;28;19960;-60
2022/08/12 17:05:04;;;;;;;;;;;;;;;;;;5046418;28;19967;-60
2022/08/12 17:07:31;;;;;;;;;;;;;;;;;;5044990;28;19925;-60
2022/08/12 17:09:57;;;;;;;;;;;;;;;;;;5027954;28;19932;-60
2022/08/12 17:12:27;;;;;;;;;;;;;;;;;;5045546;28;19983;-60
2022/08/12 17:14:53;;;;;;;;;;;;;;;;;;5045506;28;19925;-60
2022/08/12 17:17:21;;;;;;;;;;;;;;;;;;5045141;28;20329;-60
2022/08/12 17:19:47;;;;;;;;;;;;;;;;;;5045222;28;20395;-60
2022/08/12 17:22:15;;;;;;;;;;;;;;;;;;5044929;28;19929;-60
2022/08/12 17:24:41;;;;;;;;;;;;;;;;;;5045452;28;20011;-60
2022/08/12 17:27:07;;;;;;;;;;;;;;;;;;5045778;28;20064;-60
2022/08/12 17:29:33;;;;;;;;;;;;;;;;;;5044714;28;19964;-60
2022/08/12 17:32:01;;;;;;;;;;;;;;;;;;5027529;28;19936;-60
2022/08/12 17:37:13;;;;;;;;;;;;;;;;;;5044038;28;19928;-60
2022/08/12 17:39:39;;;;;;;;;;;;;;;;;;5045143;28;20097;-59
2022/08/12 17:42:05;;;;;;;;;;;;;;;;;;5045704;28;19977;-60
2022/08/12 17:44:31;;;;;;;;;;;;;;;;;;5044977;28;20012;-59
2022/08/12 17:46:57;;;;;;;;;;;;;;;;;;5044096;28;20013;-59
2022/08/12 17:49:24;;;;;;;;;;;;;;;;;;5062468;28;20547;-60
2022/08/12 17:51:51;;;;;;;;;;;;;;;;;;5064315;28;19924;-60
2022/08/12 17:54:17;;;;;;;;;;;;;;;;;;5064175;28;19921;-60
2022/08/12 17:56:43;;;;;;;;;;;;;;;;;;5064849;28;19924;-59
2022/08/12 17:59:09;;;;;;;;;;;;;;;;;;5064857;28;19951;-60
2022/08/12 18:01:35;;;;;;;;;;;;;;;;;;5064905;28;20377;-60
2022/08/12 18:04:03;;;;;;;;;;;;;;;;;;5064819;28;19924;-59
2022/08/12 18:06:29;;;;;;;;;;;;;;;;;;5063979;28;19928;-60
2022/08/12 18:08:55;;;;;;;;;;;;;;;;;;5063912;28;20392;-60
2022/08/12 18:14:06;;;;;;;;;;;;;;;;;;5065066;28;20019;-59
2022/08/12 18:16:33;;;;;;;;;;;;;;;;;;5064050;28;20015;-60
2022/08/12 18:19:01;;;;;;;;;;;;;;;;;;5046208;28;20292;-60
2022/08/12 18:21:27;;;;;;;;;;;;;;;;;;5062434;28;19925;-60
2022/08/12 18:23:53;;;;;;;;;;;;;;;;;;5064486;28;19924;-59
2022/08/12 18:26:25;;;;;;;;;;;;;;;;;;5064413;28;19925;-60
2022/08/12 18:28:53;;;;;;;;;;;;;;;;;;5064464;28;20137;-59
2022/08/12 18:31:22;;;;;;;;;;;;;;;;;;5063588;28;19925;-60
2022/08/12 18:33:48;;;;;;;;;;;;;;;;;;5064187;28;19928;-59
2022/08/12 18:36:14;;;;;;;;;;;;;;;;;;5063300;28;19927;-60
2022/08/12 18:38:40;;;;;;;;;;;;;;;;;;5064301;28;19924;-60
2022/08/12 18:43:56;;;;;;;;;;;;;;;;;;5064107;28;19931;-60